sensor_id;sensor_type;location;lat;lon;timestamp;pressure;altitude;pressure_sealevel;temperature;humidity
44751;BME280;30477;48.224;11.470;2022-09-17T00:00:55;95562.41;;;10.42;76.53
44751;BME280;30477;48.224;11.470;2022-09-17T00:03:23;95566.88;;;10.32;76.73
44751;BME280;30477;48.224;11.470;2022-09-17T00:05:57;95570.53;;;10.47;76.91
44751;BME280;30477;48.224;11.470;2022-09-17T00:08:22;95570.53;;;10.47;77.29
44751;BME280;30477;48.224;11.470;2022-09-17T00:10:47;95585.38;;;10.45;76.64
44751;BME280;30477;48.224;11.470;2022-09-17T00:13:13;95587.31;;;10.43;76.86
44751;BME280;30477;48.224;11.470;2022-09-17T00:15:44;95586.81;;;10.66;77.20
44751;BME280;30477;48.224;11.470;2022-09-17T00:18:10;95572.88;;;10.59;76.57
44751;BME280;30477;48.224;11.470;2022-09-17T00:20:40;95571.91;;;10.60;76.91
44751;BME280;30477;48.224;11.470;2022-09-17T00:23:06;95572.16;;;10.48;76.42
44751;BME280;30477;48.224;11.470;2022-09-17T00:25:33;95557.28;;;10.50;76.57
44751;BME280;30477;48.224;11.470;2022-09-17T00:27:58;95565.00;;;10.42;76.63
44751;BME280;30477;48.224;11.470;2022-09-17T00:30:24;95558.56;;;10.46;76.57
44751;BME280;30477;48.224;11.470;2022-09-17T00:32:49;95566.53;;;10.35;76.09
44751;BME280;30477;48.224;11.470;2022-09-17T00:35:17;95565.50;;;10.28;76.41
44751;BME280;30477;48.224;11.470;2022-09-17T00:37:42;95560.56;;;10.34;76.50
44751;BME280;30477;48.224;11.470;2022-09-17T00:40:08;95569.78;;;10.37;75.90
44751;BME280;30477;48.224;11.470;2022-09-17T00:42:34;95576.31;;;10.23;75.98
44751;BME280;30477;48.224;11.470;2022-09-17T00:44:59;95579.41;;;10.27;76.31
44751;BME280;30477;48.224;11.470;2022-09-17T00:47:38;95587.47;;;10.24;76.06
44751;BME280;30477;48.224;11.470;2022-09-17T00:50:05;95590.34;;;10.21;76.07
44751;BME280;30477;48.224;11.470;2022-09-17T00:52:35;95589.25;;;10.23;76.37
44751;BME280;30477;48.224;11.470;2022-09-17T00:57:36;95587.97;;;10.09;75.99
44751;BME280;30477;48.224;11.470;2022-09-17T01:00:04;95581.19;;;10.08;76.52
44751;BME280;30477;48.224;11.470;2022-09-17T01:02:29;95585.03;;;10.04;75.98
44751;BME280;30477;48.224;11.470;2022-09-17T01:04:55;95590.22;;;10.04;76.19
44751;BME280;30477;48.224;11.470;2022-09-17T01:07:56;95595.66;;;10.01;76.08
44751;BME280;30477;48.224;11.470;2022-09-17T01:18:43;95587.25;;;9.99;76.61
44751;BME280;30477;48.224;11.470;2022-09-17T01:31:54;95586.59;;;10.15;76.49
44751;BME280;30477;48.224;11.470;2022-09-17T01:34:26;95576.66;;;10.28;76.54
44751;BME280;30477;48.224;11.470;2022-09-17T01:36:58;95579.41;;;10.27;76.21
44751;BME280;30477;48.224;11.470;2022-09-17T01:39:48;95580.75;;;10.31;76.66
44751;BME280;30477;48.224;11.470;2022-09-17T01:45:04;95582.59;;;10.39;75.75
44751;BME280;30477;48.224;11.470;2022-09-17T01:48:11;95583.03;;;10.34;75.87
44751;BME280;30477;48.224;11.470;2022-09-17T01:50:51;95595.75;;;10.27;75.70
44751;BME280;30477;48.224;11.470;2022-09-17T01:53:20;95587.38;;;10.15;75.77
44751;BME280;30477;48.224;11.470;2022-09-17T01:55:47;95583.72;;;10.00;75.74
44751;BME280;30477;48.224;11.470;2022-09-17T01:58:20;95579.22;;;10.02;75.85
44751;BME280;30477;48.224;11.470;2022-09-17T02:00:52;95581.78;;;10.02;75.69
44751;BME280;30477;48.224;11.470;2022-09-17T02:06:10;95593.75;;;10.03;75.70
44751;BME280;30477;48.224;11.470;2022-09-17T02:08:56;95597.59;;;9.99;75.76
44751;BME280;30477;48.224;11.470;2022-09-17T02:11:23;95591.81;;;10.05;75.68
44751;BME280;30477;48.224;11.470;2022-09-17T02:13:58;95592.13;;;10.02;75.46
44751;BME280;30477;48.224;11.470;2022-09-17T02:21:44;95591.97;;;9.86;75.52
44751;BME280;30477;48.224;11.470;2022-09-17T02:24:18;95594.47;;;9.78;75.34
44751;BME280;30477;48.224;11.470;2022-09-17T02:29:43;95590.03;;;9.70;75.48
44751;BME280;30477;48.224;11.470;2022-09-17T02:32:10;95583.31;;;9.59;75.50
44751;BME280;30477;48.224;11.470;2022-09-17T02:34:36;95575.56;;;9.59;75.32
44751;BME280;30477;48.224;11.470;2022-09-17T02:37:02;95573.94;;;9.58;75.24
44751;BME280;30477;48.224;11.470;2022-09-17T02:39:29;95562.94;;;9.56;75.52
44751;BME280;30477;48.224;11.470;2022-09-17T02:50:53;95557.03;;;9.64;75.14
44751;BME280;30477;48.224;11.470;2022-09-17T02:58:37;95553.19;;;9.68;75.14
44751;BME280;30477;48.224;11.470;2022-09-17T03:01:22;95543.97;;;9.65;74.85
44751;BME280;30477;48.224;11.470;2022-09-17T03:03:50;95548.28;;;9.74;74.79
44751;BME280;30477;48.224;11.470;2022-09-17T03:06:17;95543.47;;;9.80;74.44
44751;BME280;30477;48.224;11.470;2022-09-17T03:08:44;95535.75;;;9.70;74.13
44751;BME280;30477;48.224;11.470;2022-09-17T03:11:11;95531.03;;;9.65;74.19
44751;BME280;30477;48.224;11.470;2022-09-17T03:13:37;95539.78;;;9.64;74.32
44751;BME280;30477;48.224;11.470;2022-09-17T03:16:03;95529.94;;;9.50;74.03
44751;BME280;30477;48.224;11.470;2022-09-17T03:18:28;95525.00;;;9.39;73.77
44751;BME280;30477;48.224;11.470;2022-09-17T03:20:54;95528.75;;;9.44;74.44
44751;BME280;30477;48.224;11.470;2022-09-17T03:23:19;95519.97;;;9.37;73.71
44751;BME280;30477;48.224;11.470;2022-09-17T03:25:45;95524.31;;;9.37;74.16
44751;BME280;30477;48.224;11.470;2022-09-17T03:28:11;95517.97;;;9.49;74.76
44751;BME280;30477;48.224;11.470;2022-09-17T03:30:36;95523.38;;;9.55;73.63
44751;BME280;30477;48.224;11.470;2022-09-17T03:33:02;95525.13;;;9.37;73.69
44751;BME280;30477;48.224;11.470;2022-09-17T03:35:27;95521.88;;;9.35;74.27
44751;BME280;30477;48.224;11.470;2022-09-17T03:37:53;95528.78;;;9.62;73.99
44751;BME280;30477;48.224;11.470;2022-09-17T03:40:18;95529.94;;;9.50;73.82
44751;BME280;30477;48.224;11.470;2022-09-17T03:42:44;95533.78;;;9.46;73.29
44751;BME280;30477;48.224;11.470;2022-09-17T03:45:09;95535.47;;;9.37;73.70
44751;BME280;30477;48.224;11.470;2022-09-17T03:47:36;95545.06;;;9.17;73.56
44751;BME280;30477;48.224;11.470;2022-09-17T03:50:01;95540.66;;;9.27;73.81
44751;BME280;30477;48.224;11.470;2022-09-17T03:52:27;95540.22;;;9.14;73.67
44751;BME280;30477;48.224;11.470;2022-09-17T03:54:52;95545.72;;;9.01;73.96
44751;BME280;30477;48.224;11.470;2022-09-17T03:57:18;95543.94;;;9.02;73.88
44751;BME280;30477;48.224;11.470;2022-09-17T03:59:43;95534.47;;;8.92;74.16
44751;BME280;30477;48.224;11.470;2022-09-17T04:02:08;95532.47;;;8.86;74.44
44751;BME280;30477;48.224;11.470;2022-09-17T04:04:33;95531.38;;;8.79;74.34
44751;BME280;30477;48.224;11.470;2022-09-17T04:06:59;95531.91;;;8.92;74.61
44751;BME280;30477;48.224;11.470;2022-09-17T04:09:24;95533.75;;;9.00;74.50
44751;BME280;30477;48.224;11.470;2022-09-17T04:11:49;95534.38;;;8.84;74.27
44751;BME280;30477;48.224;11.470;2022-09-17T04:14:15;95536.88;;;8.66;74.41
44751;BME280;30477;48.224;11.470;2022-09-17T04:16:40;95535.53;;;8.62;74.96
44751;BME280;30477;48.224;11.470;2022-09-17T04:19:05;95533.38;;;8.58;74.97
44751;BME280;30477;48.224;11.470;2022-09-17T04:21:31;95531.06;;;8.54;75.04
44751;BME280;30477;48.224;11.470;2022-09-17T04:23:56;95533.00;;;8.52;75.42
44751;BME280;30477;48.224;11.470;2022-09-17T04:26:21;95538.72;;;8.46;75.46
44751;BME280;30477;48.224;11.470;2022-09-17T04:28:47;95534.78;;;8.42;75.57
44751;BME280;30477;48.224;11.470;2022-09-17T04:31:12;95532.31;;;8.50;75.80
44751;BME280;30477;48.224;11.470;2022-09-17T04:33:37;95532.56;;;8.57;76.02
44751;BME280;30477;48.224;11.470;2022-09-17T04:36:03;95541.25;;;8.56;75.97
44751;BME280;30477;48.224;11.470;2022-09-17T04:38:29;95534.03;;;8.60;76.21
44751;BME280;30477;48.224;11.470;2022-09-17T04:40:54;95536.06;;;8.66;75.86
44751;BME280;30477;48.224;11.470;2022-09-17T04:43:21;95550.31;;;8.70;75.92
44751;BME280;30477;48.224;11.470;2022-09-17T04:45:47;95546.28;;;8.58;75.77
44751;BME280;30477;48.224;11.470;2022-09-17T04:48:13;95547.22;;;8.57;76.11
44751;BME280;30477;48.224;11.470;2022-09-17T04:50:39;95546.16;;;8.49;76.02
44751;BME280;30477;48.224;11.470;2022-09-17T04:53:04;95540.06;;;8.50;76.25
44751;BME280;30477;48.224;11.470;2022-09-17T04:55:29;95547.25;;;8.47;76.35
44751;BME280;30477;48.224;11.470;2022-09-17T04:57:55;95550.50;;;8.49;76.49
44751;BME280;30477;48.224;11.470;2022-09-17T05:00:21;95567.22;;;8.45;76.44
44751;BME280;30477;48.224;11.470;2022-09-17T05:02:48;95575.50;;;8.48;76.92
44751;BME280;30477;48.224;11.470;2022-09-17T05:05:14;95578.47;;;8.53;77.07
44751;BME280;30477;48.224;11.470;2022-09-17T05:07:40;95591.06;;;8.57;76.96
44751;BME280;30477;48.224;11.470;2022-09-17T05:10:07;95618.88;;;8.63;76.79
44751;BME280;30477;48.224;11.470;2022-09-17T05:12:33;95638.72;;;8.72;77.13
44751;BME280;30477;48.224;11.470;2022-09-17T05:14:59;95647.25;;;8.82;77.24
44751;BME280;30477;48.224;11.470;2022-09-17T05:17:24;95647.75;;;8.96;76.88
44751;BME280;30477;48.224;11.470;2022-09-17T05:19:49;95657.91;;;9.07;76.58
44751;BME280;30477;48.224;11.470;2022-09-17T05:22:15;95655.16;;;9.18;76.31
44751;BME280;30477;48.224;11.470;2022-09-17T05:24:41;95662.50;;;9.13;76.28
44751;BME280;30477;48.224;11.470;2022-09-17T05:27:07;95667.22;;;9.27;76.06
44751;BME280;30477;48.224;11.470;2022-09-17T05:29:33;95673.22;;;9.18;75.64
44751;BME280;30477;48.224;11.470;2022-09-17T05:31:58;95680.19;;;9.08;75.74
44751;BME280;30477;48.224;11.470;2022-09-17T05:34:23;95685.34;;;9.08;76.21
44751;BME280;30477;48.224;11.470;2022-09-17T05:36:49;95691.72;;;9.13;75.43
44751;BME280;30477;48.224;11.470;2022-09-17T05:39:14;95704.22;;;9.08;75.80
44751;BME280;30477;48.224;11.470;2022-09-17T05:41:39;95699.19;;;9.07;75.64
44751;BME280;30477;48.224;11.470;2022-09-17T05:44:05;95705.22;;;8.98;75.55
44751;BME280;30477;48.224;11.470;2022-09-17T05:46:30;95704.16;;;8.90;75.68
44751;BME280;30477;48.224;11.470;2022-09-17T05:48:55;95704.16;;;8.90;75.61
44751;BME280;30477;48.224;11.470;2022-09-17T05:51:22;95707.66;;;8.89;75.69
44751;BME280;30477;48.224;11.470;2022-09-17T05:53:48;95702.25;;;8.92;75.54
44751;BME280;30477;48.224;11.470;2022-09-17T05:56:13;95713.38;;;8.93;75.73
44751;BME280;30477;48.224;11.470;2022-09-17T05:58:38;95712.28;;;8.96;75.51
44751;BME280;30477;48.224;11.470;2022-09-17T06:01:04;95713.38;;;8.93;75.61
44751;BME280;30477;48.224;11.470;2022-09-17T06:03:29;95719.09;;;8.97;75.42
44751;BME280;30477;48.224;11.470;2022-09-17T06:05:57;95712.28;;;8.96;75.20
44751;BME280;30477;48.224;11.470;2022-09-17T06:08:23;95711.34;;;8.97;75.47
44751;BME280;30477;48.224;11.470;2022-09-17T06:10:49;95721.50;;;8.98;75.14
44751;BME280;30477;48.224;11.470;2022-09-17T06:13:19;95727.22;;;8.92;75.39
44751;BME280;30477;48.224;11.470;2022-09-17T06:15:52;95716.47;;;9.06;75.38
44751;BME280;30477;48.224;11.470;2022-09-17T06:18:18;95705.72;;;9.11;74.88
44751;BME280;30477;48.224;11.470;2022-09-17T06:21:00;95708.28;;;9.11;75.10
44751;BME280;30477;48.224;11.470;2022-09-17T06:23:27;95702.47;;;9.09;75.01
44751;BME280;30477;48.224;11.470;2022-09-17T06:25:54;95703.53;;;9.16;75.27
44751;BME280;30477;48.224;11.470;2022-09-17T06:28:20;95708.16;;;9.22;74.73
44751;BME280;30477;48.224;11.470;2022-09-17T06:30:45;95705.94;;;9.27;74.97
44751;BME280;30477;48.224;11.470;2022-09-17T06:33:11;95701.91;;;9.15;74.87
44751;BME280;30477;48.224;11.470;2022-09-17T06:35:36;95709.50;;;9.17;74.71
44751;BME280;30477;48.224;11.470;2022-09-17T06:38:05;95703.25;;;9.19;74.57
44751;BME280;30477;48.224;11.470;2022-09-17T06:40:30;95705.16;;;9.17;74.46
44751;BME280;30477;48.224;11.470;2022-09-17T06:42:56;95711.97;;;9.18;74.45
44751;BME280;30477;48.224;11.470;2022-09-17T06:45:23;95702.44;;;9.19;74.80
44751;BME280;30477;48.224;11.470;2022-09-17T06:47:48;95698.09;;;9.19;74.44
44751;BME280;30477;48.224;11.470;2022-09-17T06:50:14;95694.56;;;9.20;74.47
44751;BME280;30477;48.224;11.470;2022-09-17T06:52:46;95702.56;;;9.27;74.34
44751;BME280;30477;48.224;11.470;2022-09-17T06:55:12;95705.03;;;9.19;74.57
44751;BME280;30477;48.224;11.470;2022-09-17T06:57:37;95699.56;;;9.22;74.38
44751;BME280;30477;48.224;11.470;2022-09-17T07:00:03;95700.41;;;9.12;74.50
44751;BME280;30477;48.224;11.470;2022-09-17T07:02:29;95699.19;;;9.17;74.74
44751;BME280;30477;48.224;11.470;2022-09-17T07:04:54;95693.16;;;9.35;75.22
44751;BME280;30477;48.224;11.470;2022-09-17T07:07:19;95697.81;;;9.60;75.15
44751;BME280;30477;48.224;11.470;2022-09-17T07:09:45;95697.06;;;9.95;74.86
44751;BME280;30477;48.224;11.470;2022-09-17T07:12:10;95695.41;;;10.22;74.82
44751;BME280;30477;48.224;11.470;2022-09-17T07:14:35;95689.53;;;10.47;74.10
44751;BME280;30477;48.224;11.470;2022-09-17T07:17:00;95685.69;;;10.51;73.54
44751;BME280;30477;48.224;11.470;2022-09-17T07:19:26;95685.63;;;10.61;72.88
44751;BME280;30477;48.224;11.470;2022-09-17T07:21:52;95686.34;;;10.71;72.53
44751;BME280;30477;48.224;11.470;2022-09-17T07:24:17;95685.44;;;10.81;71.98
44751;BME280;30477;48.224;11.470;2022-09-17T07:26:43;95688.78;;;10.73;70.76
44751;BME280;30477;48.224;11.470;2022-09-17T07:29:08;95686.34;;;10.53;70.64
44751;BME280;30477;48.224;11.470;2022-09-17T07:31:34;95682.44;;;10.49;70.50
44751;BME280;30477;48.224;11.470;2022-09-17T07:33:59;95684.16;;;10.41;70.11
44751;BME280;30477;48.224;11.470;2022-09-17T07:36:25;95691.78;;;10.42;70.52
44751;BME280;30477;48.224;11.470;2022-09-17T07:38:51;95691.53;;;10.53;70.40
44751;BME280;30477;48.224;11.470;2022-09-17T07:41:16;95683.97;;;10.60;69.90
44751;BME280;30477;48.224;11.470;2022-09-17T07:43:42;95668.09;;;10.55;69.65
44751;BME280;30477;48.224;11.470;2022-09-17T07:46:12;95671.22;;;10.59;69.01
44751;BME280;30477;48.224;11.470;2022-09-17T07:48:38;95671.03;;;10.60;69.01
44751;BME280;30477;48.224;11.470;2022-09-17T07:51:04;95664.78;;;10.63;68.56
44751;BME280;30477;48.224;11.470;2022-09-17T07:53:30;95658.44;;;10.83;68.54
44751;BME280;30477;48.224;11.470;2022-09-17T07:55:57;95656.94;;;10.99;68.36
44751;BME280;30477;48.224;11.470;2022-09-17T07:58:27;95634.31;;;10.83;66.99
44751;BME280;30477;48.224;11.470;2022-09-17T08:00:52;95646.59;;;10.99;67.38
44751;BME280;30477;48.224;11.470;2022-09-17T08:03:18;95652.66;;;11.15;66.91
44751;BME280;30477;48.224;11.470;2022-09-17T08:05:43;95648.63;;;11.21;65.76
44751;BME280;30477;48.224;11.470;2022-09-17T08:08:08;95659.03;;;11.29;64.90
44751;BME280;30477;48.224;11.470;2022-09-17T08:10:34;95649.91;;;11.17;64.25
44751;BME280;30477;48.224;11.470;2022-09-17T08:12:59;95677.50;;;11.26;64.29
44751;BME280;30477;48.224;11.470;2022-09-17T08:15:25;95672.72;;;11.48;64.20
44751;BME280;30477;48.224;11.470;2022-09-17T08:17:50;95681.78;;;11.44;63.37
44751;BME280;30477;48.224;11.470;2022-09-17T08:20:16;95686.44;;;11.66;62.92
44751;BME280;30477;48.224;11.470;2022-09-17T08:22:42;95684.84;;;11.82;63.07
44751;BME280;30477;48.224;11.470;2022-09-17T08:25:09;95673.16;;;11.77;61.95
44751;BME280;30477;48.224;11.470;2022-09-17T08:27:35;95699.06;;;11.69;61.55
44751;BME280;30477;48.224;11.470;2022-09-17T08:30:03;95688.41;;;11.72;61.26
44751;BME280;30477;48.224;11.470;2022-09-17T08:32:29;95689.94;;;11.91;61.05
44751;BME280;30477;48.224;11.470;2022-09-17T08:34:54;95690.84;;;11.82;60.09
44751;BME280;30477;48.224;11.470;2022-09-17T08:37:20;95692.56;;;11.65;60.78
44751;BME280;30477;48.224;11.470;2022-09-17T08:39:46;95693.94;;;11.43;60.27
44751;BME280;30477;48.224;11.470;2022-09-17T08:44:43;95706.13;;;10.99;61.25
44751;BME280;30477;48.224;11.470;2022-09-17T08:47:33;95700.91;;;10.90;62.13
44751;BME280;30477;48.224;11.470;2022-09-17T08:50:12;95708.88;;;10.79;62.26
44751;BME280;30477;48.224;11.470;2022-09-17T08:55:30;95718.81;;;10.66;62.79
44751;BME280;30477;48.224;11.470;2022-09-17T09:01:00;95718.97;;;10.64;62.10
44751;BME280;30477;48.224;11.470;2022-09-17T09:06:14;95721.06;;;10.61;62.29
44751;BME280;30477;48.224;11.470;2022-09-17T09:08:44;95732.72;;;10.65;62.51
44751;BME280;30477;48.224;11.470;2022-09-17T09:11:15;95733.00;;;10.62;62.88
44751;BME280;30477;48.224;11.470;2022-09-17T09:13:52;95742.34;;;10.54;62.91
44751;BME280;30477;48.224;11.470;2022-09-17T09:16:20;95753.56;;;10.45;62.72
44751;BME280;30477;48.224;11.470;2022-09-17T09:18:50;95744.72;;;10.48;62.46
44751;BME280;30477;48.224;11.470;2022-09-17T09:21:26;95749.72;;;10.49;62.96
44751;BME280;30477;48.224;11.470;2022-09-17T09:24:18;95749.13;;;10.55;62.97
44751;BME280;30477;48.224;11.470;2022-09-17T09:26:52;95748.47;;;10.53;62.66
44751;BME280;30477;48.224;11.470;2022-09-17T09:29:45;95752.31;;;10.49;62.09
44751;BME280;30477;48.224;11.470;2022-09-17T09:32:33;95749.66;;;10.59;61.93
44751;BME280;30477;48.224;11.470;2022-09-17T09:35:01;95743.09;;;10.65;61.76
44751;BME280;30477;48.224;11.470;2022-09-17T09:37:31;95742.19;;;10.74;61.39
44751;BME280;30477;48.224;11.470;2022-09-17T09:40:12;95748.69;;;10.78;60.93
44751;BME280;30477;48.224;11.470;2022-09-17T09:42:41;95750.63;;;10.76;60.90
44751;BME280;30477;48.224;11.470;2022-09-17T09:45:17;95748.63;;;10.70;60.55
44751;BME280;30477;48.224;11.470;2022-09-17T09:48:05;95770.81;;;10.54;61.85
44751;BME280;30477;48.224;11.470;2022-09-17T09:53:23;95768.13;;;10.64;63.42
44751;BME280;30477;48.224;11.470;2022-09-17T10:00:55;95770.63;;;10.56;65.53
44751;BME280;30477;48.224;11.470;2022-09-17T10:03:26;95770.41;;;10.49;66.18
44751;BME280;30477;48.224;11.470;2022-09-17T10:06:00;95781.38;;;10.61;66.50
44751;BME280;30477;48.224;11.470;2022-09-17T10:08:28;95770.13;;;10.70;66.23
44751;BME280;30477;48.224;11.470;2022-09-17T10:11:03;95774.66;;;10.50;66.92
44751;BME280;30477;48.224;11.470;2022-09-17T10:13:31;95776.75;;;10.37;67.52
44751;BME280;30477;48.224;11.470;2022-09-17T10:16:15;95772.16;;;10.31;67.34
44751;BME280;30477;48.224;11.470;2022-09-17T10:18:42;95772.44;;;10.28;68.25
44751;BME280;30477;48.224;11.470;2022-09-17T10:21:21;95777.06;;;10.24;68.44
44751;BME280;30477;48.224;11.470;2022-09-17T10:23:47;95771.34;;;10.30;69.22
44751;BME280;30477;48.224;11.470;2022-09-17T10:26:25;95773.75;;;10.42;69.13
44751;BME280;30477;48.224;11.470;2022-09-17T10:28:55;95771.59;;;10.37;69.07
44751;BME280;30477;48.224;11.470;2022-09-17T10:31:22;95765.31;;;10.40;69.54
44751;BME280;30477;48.224;11.470;2022-09-17T10:34:00;95756.06;;;10.37;69.54
44751;BME280;30477;48.224;11.470;2022-09-17T10:36:43;95755.19;;;10.46;69.89
44751;BME280;30477;48.224;11.470;2022-09-17T10:39:36;95757.34;;;10.51;69.91
44751;BME280;30477;48.224;11.470;2022-09-17T10:42:15;95762.22;;;10.54;69.92
44751;BME280;30477;48.224;11.470;2022-09-17T10:47:21;95753.56;;;10.45;69.94
44751;BME280;30477;48.224;11.470;2022-09-17T10:49:48;95752.66;;;10.36;70.19
44751;BME280;30477;48.224;11.470;2022-09-17T11:00:12;95753.72;;;9.88;72.13
44751;BME280;30477;48.224;11.470;2022-09-17T11:05:34;95756.53;;;9.95;72.18
44751;BME280;30477;48.224;11.470;2022-09-17T11:08:33;95753.19;;;10.12;72.65
44751;BME280;30477;48.224;11.470;2022-09-17T11:13:59;95760.88;;;10.32;72.33
44751;BME280;30477;48.224;11.470;2022-09-17T11:16:44;95780.91;;;10.20;72.39
44751;BME280;30477;48.224;11.470;2022-09-17T11:22:11;95779.44;;;9.90;71.92
44751;BME280;30477;48.224;11.470;2022-09-17T11:25:20;95766.88;;;9.95;72.13
44751;BME280;30477;48.224;11.470;2022-09-17T11:27:45;95761.34;;;9.52;72.17
44751;BME280;30477;48.224;11.470;2022-09-17T11:30:21;95758.78;;;9.80;72.66
44751;BME280;30477;48.224;11.470;2022-09-17T11:35:32;95762.38;;;9.97;73.23
44751;BME280;30477;48.224;11.470;2022-09-17T11:40:58;95744.56;;;10.22;73.33
44751;BME280;30477;48.224;11.470;2022-09-17T11:43:36;95750.13;;;10.27;73.14
44751;BME280;30477;48.224;11.470;2022-09-17T11:46:24;95747.34;;;10.38;73.34
44751;BME280;30477;48.224;11.470;2022-09-17T11:48:58;95752.22;;;10.41;73.04
44751;BME280;30477;48.224;11.470;2022-09-17T11:51:42;95753.56;;;10.45;73.01
44751;BME280;30477;48.224;11.470;2022-09-17T11:54:22;95749.13;;;10.55;72.50
44751;BME280;30477;48.224;11.470;2022-09-17T11:56:56;95745.88;;;10.53;72.14
44751;BME280;30477;48.224;11.470;2022-09-17T11:59:31;95750.03;;;10.46;72.02
44751;BME280;30477;48.224;11.470;2022-09-17T12:02:02;95749.81;;;10.40;72.42
44751;BME280;30477;48.224;11.470;2022-09-17T12:07:07;95750.41;;;10.24;71.98
44751;BME280;30477;48.224;11.470;2022-09-17T12:09:38;95732.22;;;10.15;71.99
44751;BME280;30477;48.224;11.470;2022-09-17T12:12:19;95733.84;;;10.16;71.92
44751;BME280;30477;48.224;11.470;2022-09-17T12:15:01;95723.59;;;10.25;72.32
44751;BME280;30477;48.224;11.470;2022-09-17T12:17:36;95723.94;;;10.40;72.08
44751;BME280;30477;48.224;11.470;2022-09-17T12:20:07;95716.91;;;10.32;71.89
44751;BME280;30477;48.224;11.470;2022-09-17T12:22:42;95721.25;;;10.31;71.72
44751;BME280;30477;48.224;11.470;2022-09-17T12:25:12;95712.94;;;10.28;71.53
44751;BME280;30477;48.224;11.470;2022-09-17T12:27:52;95705.63;;;10.23;71.29
44751;BME280;30477;48.224;11.470;2022-09-17T12:30:21;95706.34;;;10.15;71.05
44751;BME280;30477;48.224;11.470;2022-09-17T12:35:46;95702.97;;;10.33;70.88
44751;BME280;30477;48.224;11.470;2022-09-17T12:41:28;95707.19;;;10.52;70.37
44751;BME280;30477;48.224;11.470;2022-09-17T12:53:21;95703.00;;;10.69;69.93
44751;BME280;30477;48.224;11.470;2022-09-17T13:01:12;95705.22;;;10.64;68.67
44751;BME280;30477;48.224;11.470;2022-09-17T13:03:46;95703.50;;;10.72;68.54
44751;BME280;30477;48.224;11.470;2022-09-17T13:17:42;95685.53;;;11.15;67.93
44751;BME280;30477;48.224;11.470;2022-09-17T13:20:21;95680.19;;;11.16;68.15
44751;BME280;30477;48.224;11.470;2022-09-17T13:22:51;95681.63;;;11.19;66.98
44751;BME280;30477;48.224;11.470;2022-09-17T13:25:19;95671.94;;;11.21;65.77
44751;BME280;30477;48.224;11.470;2022-09-17T13:27:46;95668.69;;;11.19;64.89
44751;BME280;30477;48.224;11.470;2022-09-17T13:30:13;95671.59;;;11.16;64.06
44751;BME280;30477;48.224;11.470;2022-09-17T13:37:31;95678.75;;;11.22;62.98
44751;BME280;30477;48.224;11.470;2022-09-17T13:39:58;95678.81;;;11.30;63.43
44751;BME280;30477;48.224;11.470;2022-09-17T13:42:27;95692.88;;;11.28;63.62
44751;BME280;30477;48.224;11.470;2022-09-17T13:45:05;95680.84;;;11.18;63.48
44751;BME280;30477;48.224;11.470;2022-09-17T13:47:39;95685.88;;;11.20;63.92
44751;BME280;30477;48.224;11.470;2022-09-17T13:50:25;95688.72;;;11.09;63.91
44751;BME280;30477;48.224;11.470;2022-09-17T13:52:53;95688.34;;;11.04;64.36
44751;BME280;30477;48.224;11.470;2022-09-17T13:55:43;95691.34;;;10.91;64.56
44751;BME280;30477;48.224;11.470;2022-09-17T14:00:57;95687.28;;;10.88;65.45
44751;BME280;30477;48.224;11.470;2022-09-17T14:13:46;95692.94;;;11.44;65.35
44751;BME280;30477;48.224;11.470;2022-09-17T14:19:26;95685.94;;;11.71;63.32
44751;BME280;30477;48.224;11.470;2022-09-17T14:35:41;95700.47;;;11.29;60.96
44751;BME280;30477;48.224;11.470;2022-09-17T14:38:15;95700.16;;;11.24;61.12
44751;BME280;30477;48.224;11.470;2022-09-17T14:40:46;95694.59;;;11.19;61.29
44751;BME280;30477;48.224;11.470;2022-09-17T14:43:20;95698.25;;;11.08;61.33
44751;BME280;30477;48.224;11.470;2022-09-17T14:45:50;95693.69;;;11.02;61.90
44751;BME280;30477;48.224;11.470;2022-09-17T14:48:32;95696.44;;;11.01;61.46
44751;BME280;30477;48.224;11.470;2022-09-17T14:53:36;95691.59;;;11.06;60.99
44751;BME280;30477;48.224;11.470;2022-09-17T14:56:02;95698.78;;;11.12;61.01
44751;BME280;30477;48.224;11.470;2022-09-17T14:58:34;95698.78;;;11.12;60.97
44751;BME280;30477;48.224;11.470;2022-09-17T15:01:01;95713.38;;;11.21;61.32
44751;BME280;30477;48.224;11.470;2022-09-17T15:03:26;95703.66;;;11.15;60.99
44751;BME280;30477;48.224;11.470;2022-09-17T15:05:51;95714.31;;;11.12;61.35
44751;BME280;30477;48.224;11.470;2022-09-17T15:08:25;95728.53;;;11.08;61.38
44751;BME280;30477;48.224;11.470;2022-09-17T15:10:55;95721.41;;;11.10;61.53
44751;BME280;30477;48.224;11.470;2022-09-17T15:15:59;95735.13;;;11.02;61.74
44751;BME280;30477;48.224;11.470;2022-09-17T15:18:32;95734.91;;;10.95;61.63
44751;BME280;30477;48.224;11.470;2022-09-17T15:21:01;95733.91;;;10.88;61.94
44751;BME280;30477;48.224;11.470;2022-09-17T15:23:28;95739.34;;;10.85;61.31
44751;BME280;30477;48.224;11.470;2022-09-17T15:25:57;95738.56;;;10.67;60.93
44751;BME280;30477;48.224;11.470;2022-09-17T15:28:31;95746.25;;;10.59;61.57
44751;BME280;30477;48.224;11.470;2022-09-17T15:30:57;95751.06;;;10.53;61.56
44751;BME280;30477;48.224;11.470;2022-09-17T15:33:24;95753.28;;;10.48;61.64
44751;BME280;30477;48.224;11.470;2022-09-17T15:36:00;95764.13;;;10.52;61.87
44751;BME280;30477;48.224;11.470;2022-09-17T15:38:28;95759.19;;;10.59;62.18
44751;BME280;30477;48.224;11.470;2022-09-17T15:43:45;95760.25;;;10.48;61.99
44751;BME280;30477;48.224;11.470;2022-09-17T15:46:28;95753.28;;;10.48;62.50
44751;BME280;30477;48.224;11.470;2022-09-17T15:48:56;95752.75;;;10.45;62.52
44751;BME280;30477;48.224;11.470;2022-09-17T15:51:34;95750.06;;;10.36;62.74
44751;BME280;30477;48.224;11.470;2022-09-17T15:54:02;95754.13;;;10.39;63.08
44751;BME280;30477;48.224;11.470;2022-09-17T15:56:39;95747.63;;;10.35;63.29